Bearskin Lake, Canada
Current Conditions -  °F | °C
As of 11:00 PM on Monday 26 Jan 2015 (Local Time) from CYTL Reporting Station
Overcast Overcast  
Wind Chill: -22°   Ceiling: 3500
Heat Index: -15°   Visibility: 9mi
Dew Point: -16°   Wind: 7mph
Humidity: 92%   Direction: 210°SSW
Pressure: 29.88"   Gusts: NA
Location:  53.93°N, 90.98°W
Report Text: CYTL 270500Z AUTO 21006KT 9SM OVC035 M15/M16 A2988 RMK SLP143
Loading
Personal Weather Stations






























Interactive Weather Map New forecast layout! Learn more

10-Day Weather Forecast

Advertisements
Track Severe Weather on mobile